Time,TemperatureF,DewpointF,PressureIn,WindDirection,WindDirectionDegrees,WindSpeedMPH,WindSpeedGustMPH,Humidity,HourlyPrecipIn,Conditions,Clouds,dailyrainin,SolarRadiationWatts/m^2,SoftwareType,DateUTC
2013-04-09 00:02:00,36.0,29.0,-100.00,North,359,3.0,5.0,76,0.00,,,0.00,0.000000,,2013-04-09 06:02:00,
2013-04-09 00:12:00,36.0,29.0,-100.00,North,359,3.0,5.0,76,0.00,,,0.00,0.000000,,2013-04-09 06:12:00,
2013-04-09 00:22:00,36.0,29.0,-100.00,North,359,3.0,5.0,76,0.00,,,0.00,0.000000,,2013-04-09 06:22:00,
2013-04-09 00:42:00,35.0,27.0,-100.00,NNW,344,3.0,7.0,72,0.00,,,0.00,0.000000,,2013-04-09 06:42:00,
2013-04-09 00:52:00,35.0,27.0,-100.00,NNW,344,3.0,7.0,72,0.00,,,0.00,0.000000,,2013-04-09 06:52:00,
2013-04-09 01:02:00,35.0,27.0,-100.00,NNW,344,3.0,7.0,72,0.00,,,0.00,0.000000,,2013-04-09 07:02:00,
2013-04-09 01:13:00,35.0,27.0,-100.00,NNW,344,3.0,7.0,72,0.00,,,0.00,0.000000,,2013-04-09 07:13:00,
2013-04-09 01:22:00,35.0,27.0,-100.00,NNW,344,3.0,7.0,72,0.00,,,0.00,0.000000,,2013-04-09 07:22:00,
2013-04-09 01:42:00,31.0,29.0,-100.00,North,349,3.0,5.0,91,0.00,,,0.00,0.000000,,2013-04-09 07:42:00,
2013-04-09 01:53:00,31.0,29.0,-100.00,North,349,3.0,5.0,91,0.00,,,0.00,0.000000,,2013-04-09 07:53:00,
2013-04-09 02:03:00,31.0,29.0,-100.00,North,349,3.0,5.0,91,0.00,,,0.00,0.000000,,2013-04-09 08:03:00,
2013-04-09 02:12:00,31.0,29.0,-100.00,North,349,3.0,5.0,91,0.00,,,0.00,0.000000,,2013-04-09 08:12:00,
2013-04-09 02:22:00,31.0,29.0,-100.00,North,349,3.0,5.0,91,0.00,,,0.00,0.000000,,2013-04-09 08:22:00,
2013-04-09 02:42:00,31.0,30.0,-100.00,NNW,333,3.0,5.0,97,0.00,,,0.00,0.000000,,2013-04-09 08:42:00,
2013-04-09 02:52:00,31.0,30.0,-100.00,NNW,333,3.0,5.0,97,0.00,,,0.00,0.000000,,2013-04-09 08:52:00,
2013-04-09 03:02:00,31.0,30.0,-100.00,NNW,333,3.0,5.0,97,0.00,,,0.00,0.000000,,2013-04-09 09:02:00,
2013-04-09 03:12:00,31.0,30.0,-100.00,NNW,333,3.0,5.0,97,0.00,,,0.00,0.000000,,2013-04-09 09:12:00,
2013-04-09 03:22:00,31.0,30.0,-100.00,NNW,333,3.0,5.0,97,0.00,,,0.00,0.000000,,2013-04-09 09:22:00,
2013-04-09 03:23:00,30.0,29.0,-100.00,NNW,345,2.0,4.0,95,0.00,,,0.00,0.000000,,2013-04-09 09:23:00,
2013-04-09 03:44:00,30.0,29.0,-100.00,NNW,345,2.0,4.0,95,0.00,,,0.00,0.000000,,2013-04-09 09:44:00,
2013-04-09 03:53:00,30.0,29.0,-100.00,NNW,345,2.0,4.0,95,0.00,,,0.00,0.000000,,2013-04-09 09:53:00,
2013-04-09 04:03:00,30.0,29.0,-100.00,NNW,345,2.0,4.0,95,0.00,,,0.00,0.000000,,2013-04-09 10:03:00,
2013-04-09 04:13:00,30.0,29.0,-100.00,NNW,345,2.0,4.0,95,0.00,,,0.00,0.000000,,2013-04-09 10:13:00,
2013-04-09 04:43:00,28.0,26.0,-100.00,NW,320,2.0,6.0,93,0.00,,,0.00,0.000000,,2013-04-09 10:43:00,
2013-04-09 05:02:00,28.0,26.0,-100.00,NW,320,2.0,6.0,93,0.00,,,0.00,0.000000,,2013-04-09 11:02:00,
2013-04-09 05:12:00,28.0,26.0,-100.00,NW,320,2.0,6.0,93,0.00,,,0.00,0.000000,,2013-04-09 11:12:00,
2013-04-09 05:22:00,28.0,26.0,-100.00,NW,320,2.0,6.0,93,0.00,,,0.00,0.000000,,2013-04-09 11:22:00,
2013-04-09 05:43:00,27.0,25.0,-100.00,North,4,2.0,4.0,93,0.00,,,0.00,0.000000,,2013-04-09 11:43:00,
2013-04-09 05:52:00,27.0,25.0,-100.00,North,4,2.0,4.0,93,0.00,,,0.00,0.000000,,2013-04-09 11:52:00,
2013-04-09 06:02:00,27.0,25.0,-100.00,North,4,2.0,4.0,93,0.00,,,0.00,0.000000,,2013-04-09 12:02:00,
2013-04-09 06:12:00,27.0,25.0,-100.00,North,4,2.0,4.0,93,0.00,,,0.00,0.000000,,2013-04-09 12:12:00,
2013-04-09 06:22:00,27.0,25.0,-100.00,North,4,2.0,4.0,93,0.00,,,0.00,0.000000,,2013-04-09 12:22:00,
2013-04-09 06:43:00,23.0,20.0,-100.00,ESE,105,2.0,5.0,88,0.00,,,0.00,0.000000,,2013-04-09 12:43:00,
2013-04-09 06:53:00,23.0,20.0,-100.00,ESE,105,2.0,5.0,88,0.00,,,0.00,0.000000,,2013-04-09 12:53:00,
2013-04-09 07:02:00,23.0,20.0,-100.00,ESE,105,2.0,5.0,88,0.00,,,0.00,0.000000,,2013-04-09 13:02:00,
2013-04-09 07:12:00,23.0,20.0,-100.00,ESE,105,2.0,5.0,88,0.00,,,0.00,0.000000,,2013-04-09 13:12:00,
2013-04-09 07:22:00,23.0,20.0,-100.00,ESE,105,2.0,5.0,88,0.00,,,0.00,0.000000,,2013-04-09 13:22:00,
2013-04-09 07:43:00,18.0,15.0,-100.00,NE,54,2.0,3.0,88,0.00,,,0.00,0.000000,,2013-04-09 13:43:00,
2013-04-09 07:53:00,18.0,15.0,-100.00,NE,54,2.0,3.0,88,0.00,,,0.00,0.000000,,2013-04-09 13:53:00,
2013-04-09 08:03:00,18.0,15.0,-100.00,NE,54,2.0,3.0,88,0.00,,,0.00,0.000000,,2013-04-09 14:03:00,
2013-04-09 08:12:00,18.0,15.0,-100.00,NE,54,2.0,3.0,88,0.00,,,0.00,0.000000,,2013-04-09 14:12:00,
2013-04-09 08:22:00,18.0,15.0,-100.00,NE,54,2.0,3.0,88,0.00,,,0.00,0.000000,,2013-04-09 14:22:00,
2013-04-09 08:43:00,17.0,14.0,-100.00,NNW,331,2.0,5.0,86,0.00,,,0.00,6.000000,,2013-04-09 14:43:00,
2013-04-09 08:52:00,17.0,14.0,-100.00,NNW,331,2.0,5.0,86,0.00,,,0.00,6.000000,,2013-04-09 14:52:00,
2013-04-09 09:02:00,17.0,14.0,-100.00,NNW,331,2.0,5.0,86,0.00,,,0.00,6.000000,,2013-04-09 15:02:00,
2013-04-09 09:12:00,17.0,14.0,-100.00,NNW,331,2.0,5.0,86,0.00,,,0.00,6.000000,,2013-04-09 15:12:00,
2013-04-09 09:22:00,17.0,14.0,-100.00,NNW,331,2.0,5.0,86,0.00,,,0.00,6.000000,,2013-04-09 15:22:00,
2013-04-09 09:23:00,17.0,12.0,-100.00,South,183,2.0,4.0,81,0.00,,,0.00,26.000000,,2013-04-09 15:23:00,
2013-04-09 09:44:00,17.0,12.0,-100.00,South,183,2.0,4.0,81,0.00,,,0.00,26.000000,,2013-04-09 15:44:00,
2013-04-09 09:53:00,17.0,12.0,-100.00,South,183,2.0,4.0,81,0.00,,,0.00,26.000000,,2013-04-09 15:53:00,
2013-04-09 10:03:00,17.0,12.0,-100.00,South,183,2.0,4.0,81,0.00,,,0.00,26.000000,,2013-04-09 16:03:00,
2013-04-09 10:13:00,17.0,12.0,-100.00,South,183,2.0,4.0,81,0.00,,,0.00,26.000000,,2013-04-09 16:13:00,
2013-04-09 10:23:00,16.0,11.0,-100.00,SSE,164,3.0,5.0,80,0.00,,,0.00,37.000000,,2013-04-09 16:23:00,
2013-04-09 10:43:00,16.0,11.0,-100.00,SSE,164,3.0,5.0,80,0.00,,,0.00,37.000000,,2013-04-09 16:43:00,
2013-04-09 10:54:00,16.0,11.0,-100.00,SSE,164,3.0,5.0,80,0.00,,,0.00,37.000000,,2013-04-09 16:54:00,
2013-04-09 11:02:00,16.0,11.0,-100.00,SSE,164,3.0,5.0,80,0.00,,,0.00,37.000000,,2013-04-09 17:02:00,
2013-04-09 11:12:00,16.0,11.0,-100.00,SSE,164,3.0,5.0,80,0.00,,,0.00,37.000000,,2013-04-09 17:12:00,
2013-04-09 11:43:00,19.0,12.0,-100.00,SE,143,3.0,4.0,73,0.00,,,0.00,69.000000,,2013-04-09 17:43:00,
2013-04-09 11:54:00,19.0,12.0,-100.00,SE,143,3.0,4.0,73,0.00,,,0.00,69.000000,,2013-04-09 17:54:00,
2013-04-09 12:02:00,19.0,12.0,-100.00,SE,143,3.0,4.0,73,0.00,,,0.00,69.000000,,2013-04-09 18:02:00,
2013-04-09 12:12:00,19.0,12.0,-100.00,SE,143,3.0,4.0,73,0.00,,,0.00,69.000000,,2013-04-09 18:12:00,
2013-04-09 12:22:00,19.0,12.0,-100.00,SE,143,3.0,4.0,73,0.00,,,0.00,69.000000,,2013-04-09 18:22:00,
2013-04-09 12:43:00,26.0,17.0,-100.00,SSW,192,2.0,4.0,68,0.00,,,0.00,85.000000,,2013-04-09 18:43:00,
2013-04-09 12:53:00,26.0,17.0,-100.00,SSW,192,2.0,4.0,68,0.00,,,0.00,85.000000,,2013-04-09 18:53:00,
2013-04-09 13:03:00,26.0,17.0,-100.00,SSW,192,2.0,4.0,68,0.00,,,0.00,85.000000,,2013-04-09 19:03:00,
2013-04-09 13:12:00,26.0,17.0,-100.00,SSW,192,2.0,4.0,68,0.00,,,0.00,85.000000,,2013-04-09 19:12:00,
2013-04-09 13:22:00,26.0,17.0,-100.00,SSW,192,2.0,4.0,68,0.00,,,0.00,85.000000,,2013-04-09 19:22:00,
2013-04-09 13:53:00,27.0,17.0,-100.00,South,172,2.0,4.0,66,0.00,,,0.00,93.000000,,2013-04-09 19:53:00,
2013-04-09 14:02:00,27.0,17.0,-100.00,South,172,2.0,4.0,66,0.00,,,0.00,93.000000,,2013-04-09 20:02:00,
2013-04-09 14:12:00,27.0,17.0,-100.00,South,172,2.0,4.0,66,0.00,,,0.00,93.000000,,2013-04-09 20:12:00,
2013-04-09 14:22:00,27.0,17.0,-100.00,South,172,2.0,4.0,66,0.00,,,0.00,93.000000,,2013-04-09 20:22:00,
2013-04-09 14:44:00,31.0,17.0,-100.00,SE,131,2.0,4.0,55,0.00,,,0.00,127.000000,,2013-04-09 20:44:00,
2013-04-09 14:53:00,31.0,17.0,-100.00,SE,131,2.0,4.0,55,0.00,,,0.00,127.000000,,2013-04-09 20:53:00,
2013-04-09 15:02:00,31.0,17.0,-100.00,SE,131,2.0,4.0,55,0.00,,,0.00,127.000000,,2013-04-09 21:02:00,
2013-04-09 15:13:00,31.0,17.0,-100.00,SE,131,2.0,4.0,55,0.00,,,0.00,127.000000,,2013-04-09 21:13:00,
2013-04-09 15:22:00,31.0,17.0,-100.00,SE,131,2.0,4.0,55,0.00,,,0.00,127.000000,,2013-04-09 21:22:00,
2013-04-09 15:23:00,33.0,20.0,-100.00,SSW,210,1.0,5.0,58,0.00,,,0.00,203.000000,,2013-04-09 21:23:00,
2013-04-09 15:53:00,33.0,20.0,-100.00,SSW,210,1.0,5.0,58,0.00,,,0.00,203.000000,,2013-04-09 21:53:00,
2013-04-09 16:03:00,33.0,20.0,-100.00,SSW,210,1.0,5.0,58,0.00,,,0.00,203.000000,,2013-04-09 22:03:00,
2013-04-09 16:13:00,33.0,20.0,-100.00,SSW,210,1.0,5.0,58,0.00,,,0.00,203.000000,,2013-04-09 22:13:00,
2013-04-09 16:43:00,25.0,15.0,-100.00,SSW,202,2.0,3.0,66,0.00,,,0.00,265.000000,,2013-04-09 22:43:00,
2013-04-09 16:53:00,25.0,15.0,-100.00,SSW,202,2.0,3.0,66,0.00,,,0.00,265.000000,,2013-04-09 22:53:00,
2013-04-09 17:03:00,25.0,15.0,-100.00,SSW,202,2.0,3.0,66,0.00,,,0.00,265.000000,,2013-04-09 23:03:00,
2013-04-09 17:12:00,25.0,15.0,-100.00,SSW,202,2.0,3.0,66,0.00,,,0.00,265.000000,,2013-04-09 23:12:00,
2013-04-09 17:22:00,25.0,15.0,-100.00,SSW,202,2.0,3.0,66,0.00,,,0.00,265.000000,,2013-04-09 23:22:00,
2013-04-09 17:43:00,24.0,14.0,-100.00,SSE,149,2.0,3.0,66,0.00,,,0.00,100.000000,,2013-04-09 23:43:00,
2013-04-09 17:53:00,24.0,14.0,-100.00,SSE,149,2.0,3.0,66,0.00,,,0.00,100.000000,,2013-04-09 23:53:00,
2013-04-09 18:03:00,24.0,14.0,-100.00,SSE,149,2.0,3.0,66,0.00,,,0.00,100.000000,,2013-04-10 00:03:00,
2013-04-09 18:12:00,24.0,14.0,-100.00,SSE,149,2.0,3.0,66,0.00,,,0.00,100.000000,,2013-04-10 00:12:00,
2013-04-09 18:22:00,24.0,14.0,-100.00,SSE,149,2.0,3.0,66,0.00,,,0.00,100.000000,,2013-04-10 00:22:00,
2013-04-09 18:23:00,21.0,16.0,-100.00,SE,132,2.0,5.0,81,0.00,,,0.00,72.000000,,2013-04-10 00:23:00,
2013-04-09 18:43:00,21.0,16.0,-100.00,SE,132,2.0,5.0,81,0.00,,,0.00,72.000000,,2013-04-10 00:43:00,
2013-04-09 18:53:00,21.0,16.0,-100.00,SE,132,2.0,5.0,81,0.00,,,0.00,72.000000,,2013-04-10 00:53:00,
2013-04-09 19:02:00,21.0,16.0,-100.00,SE,132,2.0,5.0,81,0.00,,,0.00,72.000000,,2013-04-10 01:02:00,
2013-04-09 19:12:00,21.0,16.0,-100.00,SE,132,2.0,5.0,81,0.00,,,0.00,72.000000,,2013-04-10 01:12:00,
2013-04-09 19:43:00,18.0,15.0,-100.00,SSW,197,1.0,3.0,89,0.00,,,0.00,16.000000,,2013-04-10 01:43:00,
2013-04-09 19:53:00,18.0,15.0,-100.00,SSW,197,1.0,3.0,89,0.00,,,0.00,16.000000,,2013-04-10 01:53:00,
2013-04-09 20:02:00,18.0,15.0,-100.00,SSW,197,1.0,3.0,89,0.00,,,0.00,16.000000,,2013-04-10 02:02:00,
2013-04-09 20:12:00,18.0,15.0,-100.00,SSW,197,1.0,3.0,89,0.00,,,0.00,16.000000,,2013-04-10 02:12:00,
2013-04-09 20:22:00,18.0,15.0,-100.00,SSW,197,1.0,3.0,89,0.00,,,0.00,16.000000,,2013-04-10 02:22:00,
2013-04-09 20:43:00,17.0,14.0,-100.00,SE,131,1.0,3.0,89,0.00,,,0.00,0.000000,,2013-04-10 02:43:00,
2013-04-09 20:53:00,17.0,14.0,-100.00,SE,131,1.0,3.0,89,0.00,,,0.00,0.000000,,2013-04-10 02:53:00,
2013-04-09 21:03:00,17.0,14.0,-100.00,SE,131,1.0,3.0,89,0.00,,,0.00,0.000000,,2013-04-10 03:03:00,
2013-04-09 21:12:00,17.0,14.0,-100.00,SE,131,1.0,3.0,89,0.00,,,0.00,0.000000,,2013-04-10 03:12:00,
2013-04-09 21:22:00,17.0,14.0,-100.00,SE,131,1.0,3.0,89,0.00,,,0.00,0.000000,,2013-04-10 03:22:00,
2013-04-09 21:23:00,15.0,12.0,-100.00,ENE,63,1.0,2.0,87,0.00,,,0.00,0.000000,,2013-04-10 03:23:00,
2013-04-09 21:43:00,15.0,12.0,-100.00,ENE,63,1.0,2.0,87,0.00,,,0.00,0.000000,,2013-04-10 03:43:00,
2013-04-09 21:53:00,15.0,12.0,-100.00,ENE,63,1.0,2.0,87,0.00,,,0.00,0.000000,,2013-04-10 03:53:00,
2013-04-09 22:03:00,15.0,12.0,-100.00,ENE,63,1.0,2.0,87,0.00,,,0.00,0.000000,,2013-04-10 04:03:00,
2013-04-09 22:13:00,15.0,12.0,-100.00,ENE,63,1.0,2.0,87,0.00,,,0.00,0.000000,,2013-04-10 04:13:00,
2013-04-09 22:23:00,13.0,10.0,-100.00,NE,45,2.0,3.0,86,0.00,,,0.00,0.000000,,2013-04-10 04:23:00,
2013-04-09 22:43:00,13.0,10.0,-100.00,NE,45,2.0,3.0,86,0.00,,,0.00,0.000000,,2013-04-10 04:43:00,
2013-04-09 22:53:00,13.0,10.0,-100.00,NE,45,2.0,3.0,86,0.00,,,0.00,0.000000,,2013-04-10 04:53:00,
2013-04-09 23:02:00,13.0,10.0,-100.00,NE,45,2.0,3.0,86,0.00,,,0.00,0.000000,,2013-04-10 05:02:00,
2013-04-09 23:13:00,13.0,10.0,-100.00,NE,45,2.0,3.0,86,0.00,,,0.00,0.000000,,2013-04-10 05:13:00,
2013-04-09 23:43:00,11.0,8.0,-100.00,NNE,16,2.0,2.0,87,0.00,,,0.00,0.000000,,2013-04-10 05:43:00,
2013-04-09 23:53:00,11.0,8.0,-100.00,NNE,16,2.0,2.0,87,0.00,,,0.00,0.000000,,2013-04-10 05:53:00,